Dempster, South Dakota
Current Conditions -  °F | °C
As of 4:53 PM on Tuesday 21 Oct 2014 (Local Time) from KATY Reporting Station
Clear Clear  
Wind Chill: 73°   Ceiling: Unl
Heat Index: 73°   Visibility: 10mi
Dew Point: 43°   Wind: 21mph
Humidity: 34%   Direction: 160°SSE
Pressure: 29.92"   Gusts: 29mph
Location:  44.6241°N, 96.9581°W
Report Text: KATY 212153Z AUTO 16018G25KT 10SM CLR 23/06 A2992 RMK AO2 SLP132 T02280061
Loading
Personal Weather Stations






























Interactive Weather Map
Tropical Storm Tracking
New forecast layout! Learn more

10-Day Weather Forecast

Advertisements
Track Severe Weather on mobile